Time;durP1;ratioP1;P1;durP2;ratioP2;P2;SDS_P1;SDS_P2;PMS_P1;PMS_P2;Temp;Humidity;BMP_temperature;BMP_pressure;BME280_temperature;BME280_humidity;BME280_pressure;Samples;Min_cycle;Max_cycle;Signal;HPM_P1;HPM_P2
2023/05/19 00:01:06;;;;;;;;;14.50;10.50;;;;;16.99;57.43;102139.44;5057357;28;45229;-77
2023/05/19 00:03:39;;;;;;;;;10.00;9.67;;;;;16.96;57.38;102142.09;5057340;28;45511;-77
2023/05/19 00:06:07;;;;;;;;;14.33;9.00;;;;;16.92;57.54;102135.84;5054931;28;46546;-77
2023/05/19 00:08:33;;;;;;;;;12.67;9.67;;;;;16.90;58.05;102137.63;5055168;28;45518;-77
2023/05/19 00:10:59;;;;;;;;;13.00;13.00;;;;;16.89;58.31;102137.63;5057580;28;45232;-77
2023/05/19 00:13:26;;;;;;;;;10.67;9.67;;;;;16.87;58.80;102142.03;5057087;28;45513;-77
2023/05/19 00:15:51;;;;;;;;;13.50;13.00;;;;;16.85;58.94;102139.38;5057001;28;46683;-76
2023/05/19 00:18:17;;;;;;;;;13.75;11.00;;;;;16.84;59.44;102144.72;5056861;28;45432;-77
2023/05/19 00:20:42;;;;;;;;;14.25;11.75;;;;;16.81;59.37;102140.22;5056763;28;65478;-76
2023/05/19 00:23:09;;;;;;;;;11.50;10.50;;;;;16.80;59.77;102140.22;5056987;28;45380;-77
2023/05/19 00:25:34;;;;;;;;;10.33;8.67;;;;;16.77;59.98;102133.97;5056822;28;47776;-76
2023/05/19 00:28:01;;;;;;;;;14.50;11.75;;;;;16.74;60.16;102139.31;5056704;28;47470;-77
2023/05/19 00:30:26;;;;;;;;;12.50;8.75;;;;;16.72;60.42;102134.84;5057525;28;45296;-77
2023/05/19 00:32:52;;;;;;;;;9.75;9.75;;;;;16.69;60.62;102138.34;5056858;28;45507;-76
2023/05/19 00:35:18;;;;;;;;;12.50;11.25;;;;;16.66;60.91;102143.66;5055615;28;46649;-75
2023/05/19 00:37:43;;;;;;;;;12.50;9.25;;;;;16.63;60.81;102138.31;5056760;28;48690;-76
2023/05/19 00:40:09;;;;;;;;;13.00;10.50;;;;;16.61;61.33;102134.72;5056327;28;45734;-76
2023/05/19 00:42:34;;;;;;;;;19.75;12.50;;;;;16.58;61.54;102128.50;5053041;28;45524;-77
2023/05/19 00:45:00;;;;;;;;;12.75;11.50;;;;;16.56;62.11;102123.13;5055979;28;60875;-76
2023/05/19 00:47:25;;;;;;;;;15.25;12.25;;;;;16.52;62.44;102118.69;5055433;28;66475;-76
2023/05/19 00:49:51;;;;;;;;;11.00;9.50;;;;;16.51;62.35;102119.53;5056645;28;45652;-76
2023/05/19 00:52:16;;;;;;;;;16.00;12.50;;;;;16.49;63.08;102118.66;5048720;28;61590;-76
2023/05/19 00:54:43;;;;;;;;;12.25;11.50;;;;;16.46;63.13;102119.53;5037984;28;65384;-77
2023/05/19 00:57:08;;;;;;;;;14.00;10.00;;;;;16.46;63.38;102119.53;5056073;28;45261;-76
2023/05/19 00:59:34;;;;;;;;;13.75;10.75;;;;;16.43;63.95;102116.84;5056233;28;54408;-76
2023/05/19 01:02:01;;;;;;;;;13.75;12.75;;;;;16.44;63.75;102120.38;5056917;28;45260;-76
2023/05/19 01:04:28;;;;;;;;;10.00;9.25;;;;;16.41;64.09;102123.06;5056137;28;46548;-76
2023/05/19 01:06:54;;;;;;;;;16.50;12.25;;;;;16.40;64.32;102115.91;5056169;28;45308;-77
2023/05/19 01:09:22;;;;;;;;;9.75;9.75;;;;;16.37;64.63;102116.78;5037564;28;45205;-76
2023/05/19 01:11:51;;;;;;;;;10.50;10.50;;;;;16.38;65.06;102115.03;5056731;28;45585;-75
2023/05/19 01:14:17;;;;;;;;;9.67;8.33;;;;;16.36;65.37;102122.13;5055740;28;47453;-76
2023/05/19 01:16:50;;;;;;;;;12.50;11.25;;;;;16.33;65.54;102122.09;5053847;28;45411;-76
2023/05/19 01:19:51;;;;;;;;;11.50;9.50;;;;;16.31;66.44;102119.41;5055140;28;45285;-76
2023/05/19 01:22:41;;;;;;;;;16.00;13.25;;;;;16.27;66.81;102120.25;5042242;28;45518;-76
2023/05/19 01:25:28;;;;;;;;;13.75;13.25;;;;;16.23;67.21;102119.34;5056036;28;46785;-76
2023/05/19 01:28:14;;;;;;;;;15.75;12.25;;;;;16.18;67.74;102109.53;5055527;28;45564;-76
2023/05/19 01:30:43;;;;;;;;;17.00;14.25;;;;;16.13;68.41;102108.59;5051514;28;45315;-76
2023/05/19 01:33:13;;;;;;;;;12.00;9.50;;;;;16.09;68.78;102110.34;5037902;28;45694;-77
2023/05/19 01:35:39;;;;;;;;;15.25;15.25;;;;;16.04;69.26;102106.75;5055844;28;46849;-77
2023/05/19 01:38:07;;;;;;;;;15.75;12.75;;;;;16.02;69.24;102103.16;5046129;28;45426;-76
2023/05/19 01:40:34;;;;;;;;;16.75;13.00;;;;;15.97;70.05;102099.56;5053482;28;45447;-76
2023/05/19 01:43:00;;;;;;;;;11.25;10.25;;;;;15.95;70.70;102101.34;5037117;28;45448;-75
2023/05/19 01:45:30;;;;;;;;;9.75;9.75;;;;;15.91;70.89;102102.19;5055811;28;47628;-76
2023/05/19 01:47:59;;;;;;;;;15.00;12.75;;;;;15.85;71.20;102096.78;5055470;28;45298;-76
2023/05/19 01:50:25;;;;;;;;;9.25;9.25;;;;;15.82;71.81;102104.75;5056135;28;45358;-76
2023/05/19 01:52:51;;;;;;;;;14.00;11.50;;;;;15.78;72.53;102102.94;5045010;28;45399;-77
2023/05/19 01:55:16;;;;;;;;;15.50;11.25;;;;;15.74;72.75;102098.47;5055365;28;47363;-76
2023/05/19 01:57:49;;;;;;;;;11.75;10.00;;;;;15.68;72.85;102097.53;5055260;28;45444;-76
2023/05/19 02:00:20;;;;;;;;;14.25;7.75;;;;;15.65;73.91;102104.56;5054418;28;45489;-76
2023/05/19 02:03:11;;;;;;;;;16.50;13.00;;;;;15.62;74.23;102097.44;5056073;28;45651;-77
2023/05/19 02:05:53;;;;;;;;;14.67;9.67;;;;;15.60;74.39;102091.19;5053675;28;47523;-76
2023/05/19 02:08:41;;;;;;;;;15.25;13.25;;;;;15.57;74.47;102091.16;5036828;28;45537;-76
2023/05/19 02:11:14;;;;;;;;;13.00;13.00;;;;;15.54;75.04;102096.44;5052066;28;45364;-77
2023/05/19 02:13:42;;;;;;;;;16.25;10.50;;;;;15.52;74.81;102097.31;5047571;28;45344;-76
2023/05/19 02:16:10;;;;;;;;;13.25;10.00;;;;;15.51;74.57;102106.19;5055284;28;46557;-76
2023/05/19 02:18:35;;;;;;;;;11.75;10.50;;;;;15.47;74.79;102094.59;5037484;28;45267;-76
2023/05/19 02:21:01;;;;;;;;;10.75;9.00;;;;;15.44;74.83;102100.75;5056133;28;45269;-76
2023/05/19 02:23:26;;;;;;;;;15.75;14.00;;;;;15.43;75.21;102103.41;5055315;28;45447;-77
2023/05/19 02:25:52;;;;;;;;;13.50;11.50;;;;;15.40;75.33;102098.09;5054743;28;61375;-77
2023/05/19 02:28:17;;;;;;;;;13.25;11.50;;;;;15.40;75.44;102100.75;5055369;28;45431;-76
2023/05/19 02:30:42;;;;;;;;;11.75;9.25;;;;;15.37;75.39;102095.38;5055457;28;45549;-77
2023/05/19 02:33:10;;;;;;;;;15.00;13.00;;;;;15.38;75.95;102106.03;5053480;28;61218;-76
2023/05/19 02:35:35;;;;;;;;;14.00;11.25;;;;;15.37;75.96;102100.69;5055080;28;46512;-76
2023/05/19 02:38:01;;;;;;;;;15.00;10.00;;;;;15.35;75.63;102100.69;5055040;28;45495;-76
2023/05/19 02:40:26;;;;;;;;;11.67;10.00;;;;;15.32;76.26;102097.97;5056392;28;66593;-76
2023/05/19 02:42:51;;;;;;;;;10.25;10.00;;;;;15.32;76.28;102099.75;5056441;28;45275;-76
2023/05/19 02:45:17;;;;;;;;;15.75;11.50;;;;;15.31;76.87;102089.97;5055006;28;61310;-75
2023/05/19 02:47:42;;;;;;;;;16.00;14.00;;;;;15.30;77.05;102096.19;5057779;28;61940;-77
2023/05/19 02:50:08;;;;;;;;;10.50;10.25;;;;;15.27;77.43;102091.69;5058193;28;45698;-77
2023/05/19 02:52:33;;;;;;;;;19.00;14.75;;;;;15.24;77.71;102089.03;5058862;28;45546;-76
2023/05/19 02:54:59;;;;;;;;;15.75;14.25;;;;;15.24;78.34;102082.81;5057323;28;60210;-76
2023/05/19 02:57:25;;;;;;;;;16.75;14.75;;;;;15.18;78.65;102087.19;5058455;28;45453;-76
2023/05/19 02:59:50;;;;;;;;;13.50;12.50;;;;;15.16;79.08;102080.03;5057075;28;45597;-77
2023/05/19 03:02:16;;;;;;;;;18.50;15.00;;;;;15.13;78.88;102083.56;5058617;28;45494;-77
2023/05/19 03:04:41;;;;;;;;;15.75;12.75;;;;;15.09;79.06;102075.53;5057404;28;46671;-76
2023/05/19 03:07:09;;;;;;;;;17.25;12.00;;;;;15.03;79.47;102087.00;5058351;28;45411;-76
2023/05/19 03:09:36;;;;;;;;;17.00;12.50;;;;;14.98;80.03;102086.03;5058014;28;45489;-76
2023/05/19 03:12:02;;;;;;;;;15.75;13.00;;;;;14.97;79.88;102088.66;5057896;28;45606;-76
2023/05/19 03:14:28;;;;;;;;;17.50;13.75;;;;;14.92;80.66;102083.31;5057697;28;47202;-76
2023/05/19 03:16:54;;;;;;;;;18.00;14.00;;;;;14.90;80.70;102091.25;5058232;28;45503;-76
2023/05/19 03:19:20;;;;;;;;;15.00;11.50;;;;;14.88;80.92;102090.34;5057737;28;45189;-76
2023/05/19 03:21:46;;;;;;;;;20.25;15.25;;;;;14.86;80.80;102091.16;5058466;28;45491;-76
2023/05/19 03:24:11;;;;;;;;;17.00;10.25;;;;;14.81;80.97;102093.78;5057739;28;46070;-77
2023/05/19 03:26:37;;;;;;;;;17.50;13.25;;;;;14.79;81.74;102086.66;5057875;28;45273;-76
2023/05/19 03:29:02;;;;;;;;;16.25;15.00;;;;;14.76;81.53;102098.16;5056837;28;65432;-76
2023/05/19 03:31:29;;;;;;;;;15.00;14.75;;;;;14.77;82.00;102094.63;5057442;28;45662;-76
2023/05/19 03:33:56;;;;;;;;;15.25;12.50;;;;;14.75;81.88;102088.38;5057880;28;47348;-76
2023/05/19 03:36:22;;;;;;;;;16.00;15.00;;;;;14.74;82.45;102088.34;5057373;28;45355;-76
2023/05/19 03:38:47;;;;;;;;;17.75;13.50;;;;;14.72;82.67;102098.09;5057907;28;45299;-76
2023/05/19 03:41:13;;;;;;;;;18.00;15.00;;;;;14.69;82.88;102098.91;5039872;28;45517;-76
2023/05/19 03:43:38;;;;;;;;;18.00;13.00;;;;;14.68;83.14;102089.16;5056435;28;65062;-76
2023/05/19 03:46:03;;;;;;;;;17.25;14.75;;;;;14.66;83.73;102089.16;5053347;28;68967;-76
2023/05/19 03:48:29;;;;;;;;;14.00;13.50;;;;;14.64;83.69;102095.28;5056843;28;60928;-76
2023/05/19 03:50:54;;;;;;;;;16.50;13.00;;;;;14.64;83.72;102095.28;5057569;28;45312;-77
2023/05/19 03:53:20;;;;;;;;;15.50;15.50;;;;;14.61;84.04;102087.28;5056425;28;60708;-76
2023/05/19 03:55:47;;;;;;;;;22.00;16.25;;;;;14.59;84.36;102091.69;5056970;28;45209;-76
2023/05/19 03:58:13;;;;;;;;;21.50;14.25;;;;;14.57;84.50;102090.78;5055095;28;45545;-76
2023/05/19 04:00:39;;;;;;;;;20.50;14.25;;;;;14.57;84.46;102096.09;5054338;28;45214;-77
2023/05/19 04:03:04;;;;;;;;;27.50;17.50;;;;;14.53;84.72;102094.25;5050231;28;46462;-76
2023/05/19 04:05:30;;;;;;;;;16.75;14.25;;;;;14.51;84.79;102093.34;5057094;28;45491;-76
2023/05/19 04:07:55;;;;;;;;;15.50;15.50;;;;;14.49;84.71;102103.03;5037449;28;65515;-76
2023/05/19 04:10:21;;;;;;;;;14.25;12.25;;;;;14.46;84.98;102101.22;5050899;28;45407;-76
2023/05/19 04:12:46;;;;;;;;;21.00;16.50;;;;;14.44;85.18;102102.06;5056049;28;68264;-76
2023/05/19 04:15:12;;;;;;;;;21.50;17.00;;;;;14.42;85.57;102097.59;5055800;28;45522;-76
2023/05/19 04:17:37;;;;;;;;;15.75;15.00;;;;;14.42;86.17;102097.59;5056479;28;64556;-76
2023/05/19 04:20:04;;;;;;;;;20.75;15.50;;;;;14.43;85.47;102101.16;5038968;28;45280;-76
2023/05/19 04:22:30;;;;;;;;;19.75;13.00;;;;;14.41;85.68;102110.88;5057063;28;47806;-76
2023/05/19 04:24:55;;;;;;;;;16.50;15.00;;;;;14.40;85.96;102103.78;5056741;28;54584;-76
2023/05/19 04:27:21;;;;;;;;;15.75;15.50;;;;;14.38;86.70;102114.38;5048662;28;63669;-76
2023/05/19 04:29:47;;;;;;;;;15.00;13.00;;;;;14.35;87.29;102097.50;5057002;28;45592;-76
2023/05/19 04:32:16;;;;;;;;;20.25;16.00;;;;;14.35;86.96;102100.16;5055273;28;46907;-76
2023/05/19 04:34:44;;;;;;;;;16.75;14.00;;;;;14.35;86.66;102097.50;5042333;28;45435;-76
2023/05/19 04:37:15;;;;;;;;;13.25;11.50;;;;;14.37;87.23;102101.06;5037432;28;45216;-76
2023/05/19 04:39:43;;;;;;;;;16.75;14.25;;;;;14.34;87.36;102101.03;5057072;28;45322;-77
2023/05/19 04:42:10;;;;;;;;;20.25;15.00;;;;;14.34;87.30;102106.34;5054405;28;46951;-76
2023/05/19 04:44:36;;;;;;;;;15.75;13.25;;;;;14.32;88.18;102108.06;5054928;28;45274;-76
2023/05/19 04:47:04;;;;;;;;;19.25;15.75;;;;;14.31;87.92;102107.16;5056933;28;45277;-76
2023/05/19 04:49:30;;;;;;;;;18.50;15.75;;;;;14.31;88.29;102115.13;5055140;28;45431;-77
2023/05/19 04:51:56;;;;;;;;;14.75;13.25;;;;;14.31;88.11;102114.25;5053923;28;47363;-76
2023/05/19 04:54:21;;;;;;;;;16.50;16.25;;;;;14.29;88.40;102118.66;5054243;28;45454;-76
2023/05/19 04:56:46;;;;;;;;;18.50;16.50;;;;;14.30;88.22;102123.09;5045609;28;45790;-75
2023/05/19 04:59:12;;;;;;;;;17.25;12.25;;;;;14.28;88.49;102123.09;5031167;28;45697;-76
2023/05/19 05:01:39;;;;;;;;;15.00;13.50;;;;;14.28;88.82;102120.44;5054572;28;69230;-77
2023/05/19 05:04:04;;;;;;;;;16.25;15.25;;;;;14.29;88.57;102121.31;5056967;28;46130;-76
2023/05/19 05:06:30;;;;;;;;;21.25;12.25;;;;;14.30;89.09;102128.41;5055378;28;45146;-76
2023/05/19 05:08:55;;;;;;;;;15.25;12.25;;;;;14.30;89.46;102123.09;5053190;28;45425;-77
2023/05/19 05:11:21;;;;;;;;;16.25;12.25;;;;;14.33;89.53;102126.72;5056096;28;47233;-77
2023/05/19 05:13:47;;;;;;;;;23.75;15.00;;;;;14.32;88.91;102127.56;5056079;28;45209;-76
2023/05/19 05:16:13;;;;;;;;;19.75;15.25;;;;;14.35;88.81;102129.38;5056293;28;45436;-76
2023/05/19 05:18:38;;;;;;;;;17.50;15.50;;;;;14.36;88.97;102134.72;5058065;28;45454;-76
2023/05/19 05:21:05;;;;;;;;;14.50;14.00;;;;;14.36;88.90;102123.19;5055891;28;47303;-76
2023/05/19 05:23:31;;;;;;;;;17.25;13.00;;;;;14.37;88.81;102123.22;5056125;28;45292;-75
2023/05/19 05:25:56;;;;;;;;;24.00;16.00;;;;;14.41;89.23;102124.16;5054906;28;45462;-76
2023/05/19 05:28:22;;;;;;;;;16.00;14.75;;;;;14.42;89.23;102132.16;5055830;28;45502;-77
2023/05/19 05:30:47;;;;;;;;;21.50;16.75;;;;;14.45;89.19;102133.09;5037457;28;46120;-77
2023/05/19 05:33:13;;;;;;;;;21.75;14.00;;;;;14.45;89.23;102138.41;5055895;28;45554;-77
2023/05/19 05:35:38;;;;;;;;;25.50;18.50;;;;;14.48;88.98;102126.06;5055427;28;45429;-76
2023/05/19 05:38:04;;;;;;;;;16.25;14.50;;;;;14.50;88.77;102134.09;5056531;28;45411;-76
2023/05/19 05:40:29;;;;;;;;;18.50;16.00;;;;;14.50;88.63;102127.00;5054662;28;64253;-76
2023/05/19 05:42:55;;;;;;;;;20.25;15.50;;;;;14.49;88.63;102127.88;5044370;28;45403;-77
2023/05/19 05:45:24;;;;;;;;;19.50;16.00;;;;;14.53;88.85;102139.44;5048455;28;45621;-77
2023/05/19 05:47:50;;;;;;;;;18.50;15.75;;;;;14.55;88.31;102135.94;5055787;28;45285;-76
2023/05/19 05:50:16;;;;;;;;;14.50;12.00;;;;;14.57;89.00;102139.50;5055650;28;47475;-76
2023/05/19 05:52:45;;;;;;;;;17.75;16.00;;;;;14.59;88.82;102140.41;5055203;28;45333;-77
2023/05/19 05:55:11;;;;;;;;;17.25;14.25;;;;;14.63;88.35;102139.59;5050493;28;45356;-76
2023/05/19 05:57:36;;;;;;;;;21.25;16.25;;;;;14.63;88.64;102144.91;5055019;28;45535;-76
2023/05/19 06:00:04;;;;;;;;;18.50;14.50;;;;;14.64;88.11;102149.34;5054804;28;49570;-77
2023/05/19 06:02:30;;;;;;;;;9.00;9.00;;;;;14.64;88.20;102146.69;5045579;28;45499;-75
2023/05/19 06:04:55;;;;;;;;;19.00;16.25;;;;;14.66;88.24;102142.31;5031241;28;61114;-75
2023/05/19 06:07:20;;;;;;;;;20.75;17.00;;;;;14.70;88.43;102150.31;5049213;28;45542;-78
2023/05/19 06:09:46;;;;;;;;;19.75;13.75;;;;;14.72;88.34;102153.91;5053729;28;65845;-77
2023/05/19 06:12:11;;;;;;;;;19.75;15.50;;;;;14.72;88.33;102149.50;5050623;28;67807;-79
2023/05/19 06:14:36;;;;;;;;;14.00;12.75;;;;;14.73;88.01;102150.38;5031520;28;45781;-76
2023/05/19 06:17:02;;;;;;;;;16.00;16.00;;;;;14.72;87.74;102146.84;5055544;28;63599;-77
2023/05/19 06:19:27;;;;;;;;;19.50;16.50;;;;;14.74;87.49;102145.06;5056623;28;46814;-76
2023/05/19 06:21:53;;;;;;;;;17.00;15.75;;;;;14.77;87.80;102141.59;5055276;28;46575;-77
2023/05/19 06:24:18;;;;;;;;;21.00;19.00;;;;;14.78;87.16;102143.38;5053961;28;45114;-77
2023/05/19 06:26:43;;;;;;;;;18.00;16.00;;;;;14.80;87.56;102141.59;5054125;28;52671;-76
2023/05/19 06:29:09;;;;;;;;;22.00;17.50;;;;;14.82;88.10;102148.75;5051579;28;61801;-76
2023/05/19 06:31:34;;;;;;;;;16.50;13.75;;;;;14.84;87.83;102149.66;5051366;28;67581;-76
2023/05/19 06:34:00;;;;;;;;;14.50;14.50;;;;;14.86;87.33;102147.94;5055288;28;45515;-76
2023/05/19 06:36:25;;;;;;;;;15.50;15.25;;;;;14.89;87.44;102144.41;5057814;28;45627;-77
2023/05/19 06:38:50;;;;;;;;;17.25;13.75;;;;;14.94;87.13;102145.38;5051080;28;46917;-76
2023/05/19 06:41:16;;;;;;;;;16.00;13.00;;;;;14.98;87.78;102135.69;5054662;28;46428;-76
2023/05/19 06:43:41;;;;;;;;;19.75;11.75;;;;;15.04;87.29;102141.97;5056430;28;57461;-76
2023/05/19 06:46:07;;;;;;;;;16.75;14.75;;;;;15.05;86.50;102135.78;5057045;28;45157;-77
2023/05/19 06:48:32;;;;;;;;;14.00;13.25;;;;;15.09;86.54;102132.28;5047287;28;68756;-75
2023/05/19 06:50:57;;;;;;;;;13.75;13.75;;;;;15.14;86.00;102138.56;5056336;28;66883;-76
2023/05/19 06:53:23;;;;;;;;;13.25;13.00;;;;;15.18;85.87;102136.84;5055221;28;62490;-76
2023/05/19 06:55:51;;;;;;;;;17.00;13.50;;;;;15.20;85.66;102138.63;5055589;28;57277;-78
2023/05/19 06:58:16;;;;;;;;;19.50;11.00;;;;;15.25;85.99;102145.78;5056212;28;46519;-78
2023/05/19 07:00:42;;;;;;;;;18.00;15.50;;;;;15.27;85.40;102136.94;5054817;28;66615;-77
2023/05/19 07:03:07;;;;;;;;;10.75;10.75;;;;;15.30;85.69;102134.31;5153787;22;45396;-77
2023/05/19 07:05:33;;;;;;;;;14.25;14.25;;;;;15.34;85.82;102136.16;5056296;28;45533;-78
2023/05/19 07:07:58;;;;;;;;;17.75;13.25;;;;;15.36;85.18;102126.41;5035671;28;46406;-78
2023/05/19 07:10:24;;;;;;;;;18.00;15.00;;;;;15.38;86.16;102124.66;5040219;28;67786;-77
2023/05/19 07:12:49;;;;;;;;;15.25;13.25;;;;;15.41;86.05;102119.38;5052722;28;45414;-77
2023/05/19 07:15:14;;;;;;;;;16.25;15.75;;;;;15.49;85.81;102119.44;5053704;28;45464;-78
2023/05/19 07:17:40;;;;;;;;;17.25;12.75;;;;;15.55;85.81;102123.94;5056358;28;60469;-75
2023/05/19 07:20:06;;;;;;;;;12.00;10.25;;;;;15.60;85.41;102119.56;5045874;28;45960;-79
2023/05/19 07:22:34;;;;;;;;;19.25;15.50;;;;;15.62;85.01;102121.41;5044431;28;45479;-77
2023/05/19 07:24:59;;;;;;;;;13.67;11.67;;;;;15.65;85.18;102126.75;5040351;28;45528;-77
2023/05/19 07:27:25;;;;;;;;;18.50;13.75;;;;;15.69;84.73;102107.28;5043642;28;46481;-77
2023/05/19 07:29:50;;;;;;;;;16.50;15.00;;;;;15.75;84.53;102119.78;5030307;28;45689;-80
2023/05/19 07:32:15;;;;;;;;;17.75;15.00;;;;;15.80;84.76;102114.50;5049844;28;45518;-77
2023/05/19 07:34:41;;;;;;;;;14.50;11.75;;;;;15.84;84.78;102111.88;5053922;28;63203;-77
2023/05/19 07:37:06;;;;;;;;;20.50;16.25;;;;;15.89;84.25;102115.50;5055513;28;46504;-76
2023/05/19 07:39:33;;;;;;;;;14.25;11.25;;;;;15.89;83.80;102112.81;5053416;28;67760;-77
2023/05/19 07:41:59;;;;;;;;;15.67;12.67;;;;;15.92;83.50;102115.50;5055078;28;45659;-77
2023/05/19 07:44:25;;;;;;;;;13.25;13.25;;;;;15.96;83.58;102121.75;5046356;28;45325;-77
2023/05/19 07:46:51;;;;;;;;;14.50;12.75;;;;;15.99;83.22;102113.81;5056235;28;46345;-77
2023/05/19 07:49:16;;;;;;;;;18.00;16.00;;;;;16.02;83.52;102115.59;5053319;28;45486;-77
2023/05/19 07:51:42;;;;;;;;;11.75;11.75;;;;;16.05;83.13;102111.19;5054373;28;45439;-77
2023/05/19 07:54:07;;;;;;;;;17.33;12.33;;;;;16.06;83.18;102107.66;5056699;28;45621;-78
2023/05/19 07:56:33;;;;;;;;;12.00;11.00;;;;;16.10;83.66;102116.56;5054636;28;45878;-76
2023/05/19 07:58:58;;;;;;;;;15.25;13.25;;;;;16.13;83.15;102108.59;5054936;28;69363;-76
2023/05/19 08:01:23;;;;;;;;;15.67;12.00;;;;;16.16;82.59;102109.50;5055859;28;45482;-77
2023/05/19 08:03:49;;;;;;;;;24.67;15.33;;;;;16.22;83.35;102114.88;5049439;28;45484;-77
2023/05/19 08:06:14;;;;;;;;;14.67;13.67;;;;;16.27;83.61;102101.59;5055944;28;55864;-77
2023/05/19 08:08:40;;;;;;;;;17.00;12.67;;;;;16.33;84.20;102100.75;5056341;28;45313;-77
2023/05/19 08:11:06;;;;;;;;;13.00;10.33;;;;;16.37;83.07;102100.81;5057625;28;45472;-77
2023/05/19 08:13:32;;;;;;;;;12.33;12.00;;;;;16.41;83.23;102099.06;5052701;28;45435;-77
2023/05/19 08:15:58;;;;;;;;;18.33;11.00;;;;;16.47;83.43;102091.09;5024841;28;46212;-77
2023/05/19 08:18:26;;;;;;;;;15.33;13.67;;;;;16.55;83.12;102099.13;5045283;28;45501;-75
2023/05/19 08:20:52;;;;;;;;;16.00;11.33;;;;;16.60;82.72;102100.94;5049292;28;45499;-78
2023/05/19 08:23:17;;;;;;;;;13.67;12.33;;;;;16.66;82.24;102097.44;5054796;28;52692;-75
2023/05/19 08:25:43;;;;;;;;;13.67;11.00;;;;;16.70;82.04;102092.13;5045343;28;70430;-77
2023/05/19 08:28:08;;;;;;;;;16.33;11.67;;;;;16.73;81.95;102089.53;5053185;28;45415;-76
2023/05/19 08:30:34;;;;;;;;;13.33;12.00;;;;;16.77;81.73;102090.41;5048660;28;45462;-75
2023/05/19 08:33:00;;;;;;;;;21.67;14.00;;;;;16.81;81.65;102099.34;5053744;28;45530;-75
2023/05/19 08:35:25;;;;;;;;;12.33;12.00;;;;;16.83;81.35;102092.22;5055569;28;45494;-75
2023/05/19 08:37:50;;;;;;;;;10.33;9.33;;;;;16.88;81.32;102085.13;5054501;28;45623;-81
2023/05/19 08:40:17;;;;;;;;;13.00;13.00;;;;;16.91;80.96;102080.72;5054736;28;60690;-74
2023/05/19 08:42:45;;;;;;;;;11.67;10.67;;;;;16.99;80.77;102078.06;5056169;28;45562;-75
2023/05/19 08:45:11;;;;;;;;;12.00;11.33;;;;;17.02;80.81;102070.09;5055788;28;46812;-76
2023/05/19 08:47:37;;;;;;;;;10.67;8.33;;;;;17.07;80.17;102065.66;5055972;28;45427;-72
2023/05/19 08:50:08;;;;;;;;;10.00;10.00;;;;;17.12;80.21;102063.91;5038636;28;45429;-73
2023/05/19 08:53:12;;;;;;;;;11.33;11.33;;;;;17.21;80.17;102073.75;5054456;28;45491;-79
2023/05/19 08:55:48;;;;;;;;;14.33;8.00;;;;;17.29;80.40;102069.28;5054782;28;46783;-79
2023/05/19 08:58:15;;;;;;;;;9.67;8.33;;;;;17.35;80.47;102057.75;5037548;28;45582;-79
2023/05/19 09:00:41;;;;;;;;;13.67;8.67;;;;;17.44;80.55;102052.44;5045780;28;45533;-79
2023/05/19 09:03:06;;;;;;;;;17.67;13.00;;;;;17.52;80.73;102058.66;5033730;28;45532;-81
2023/05/19 09:05:32;;;;;;;;;11.00;8.67;;;;;17.60;80.19;102056.03;5035938;28;47420;-78
2023/05/19 09:07:57;;;;;;;;;11.67;9.67;;;;;17.67;79.79;102049.78;5052764;28;58480;-77
2023/05/19 09:10:23;;;;;;;;;11.00;9.00;;;;;17.72;80.21;102056.03;5047244;28;45594;-77
2023/05/19 09:12:48;;;;;;;;;11.67;10.00;;;;;17.79;79.78;102047.19;5036795;28;45410;-80
2023/05/19 09:15:18;;;;;;;;;10.33;8.67;;;;;17.85;80.02;102040.97;5054326;28;46794;-80
2023/05/19 09:17:46;;;;;;;;;9.00;8.00;;;;;17.93;79.52;102044.50;5053429;28;45345;-80
2023/05/19 09:20:12;;;;;;;;;12.00;8.33;;;;;17.97;78.92;102035.59;5050144;28;45578;-78
2023/05/19 09:22:42;;;;;;;;;12.67;8.00;;;;;17.99;78.67;102045.38;5047879;28;45355;-79
2023/05/19 09:25:18;;;;;;;;;11.67;10.33;;;;;18.01;78.54;102040.94;5048851;28;45586;-79
2023/05/19 09:27:45;;;;;;;;;12.67;8.00;;;;;18.09;78.22;102040.03;5050260;28;45423;-80
2023/05/19 09:30:11;;;;;;;;;8.67;7.33;;;;;18.16;78.47;102032.00;5044278;28;45476;-77
2023/05/19 09:32:36;;;;;;;;;11.67;8.33;;;;;18.22;78.29;102031.13;5044722;28;45580;-77
2023/05/19 09:35:03;;;;;;;;;9.00;9.00;;;;;18.28;77.64;102029.34;5050131;28;68411;-80
2023/05/19 09:37:28;;;;;;;;;9.00;9.00;;;;;18.35;77.62;102024.84;5054115;28;45613;-80
2023/05/19 09:39:53;;;;;;;;;9.00;8.00;;;;;18.44;78.27;102034.66;5048376;28;45606;-84
2023/05/19 09:42:25;;;;;;;;;12.00;10.33;;;;;18.49;77.35;102022.16;5024022;28;60723;-78
2023/05/19 09:44:58;;;;;;;;;11.00;10.00;;;;;18.55;77.49;102023.03;5024148;28;47714;-79
2023/05/19 09:47:23;;;;;;;;;13.33;9.67;;;;;18.62;76.76;102025.69;5043743;28;45161;-80
2023/05/19 09:49:49;;;;;;;;;12.33;10.67;;;;;18.65;76.88;102012.31;5047420;28;45542;-79
2023/05/19 09:52:17;;;;;;;;;13.00;10.00;;;;;18.73;77.06;102018.53;5058963;28;45261;-79
2023/05/19 09:54:43;;;;;;;;;15.33;11.00;;;;;18.79;76.17;102015.84;5056494;28;47174;-76
2023/05/19 09:57:09;;;;;;;;;9.33;9.33;;;;;18.82;75.93;102027.44;5057953;28;45443;-80
2023/05/19 09:59:35;;;;;;;;;8.00;8.00;;;;;18.87;75.54;102018.50;5037575;28;45471;-78
2023/05/19 10:02:01;;;;;;;;;8.00;8.00;;;;;18.91;75.30;102025.59;5044091;28;45584;-77
2023/05/19 10:04:27;;;;;;;;;10.67;8.00;;;;;18.96;75.29;102021.09;5044197;28;46738;-77
2023/05/19 10:06:54;;;;;;;;;6.00;6.00;;;;;19.04;74.89;102016.63;5039276;28;45326;-78
2023/05/19 10:09:22;;;;;;;;;11.00;7.33;;;;;19.12;74.49;102012.09;5038358;28;45484;-80
2023/05/19 10:11:51;;;;;;;;;10.33;6.33;;;;;19.17;74.12;102012.97;5036424;28;45833;-80
2023/05/19 10:14:17;;;;;;;;;10.33;8.33;;;;;19.20;74.13;102009.41;5038368;28;47363;-77
2023/05/19 10:16:43;;;;;;;;;12.00;9.00;;;;;19.24;73.36;102011.16;5032023;28;65177;-79
2023/05/19 10:19:09;;;;;;;;;9.67;9.67;;;;;19.28;73.47;102008.47;5029899;28;45308;-79
2023/05/19 10:21:35;;;;;;;;;11.67;10.33;;;;;19.31;73.65;101997.72;5023731;28;60083;-79
2023/05/19 10:24:00;;;;;;;;;16.00;13.33;;;;;19.38;74.24;101999.44;5032072;28;46614;-79
2023/05/19 10:26:26;;;;;;;;;7.00;7.00;;;;;19.49;73.51;102009.19;5037863;28;67667;-79
2023/05/19 10:28:52;;;;;;;;;11.33;10.00;;;;;19.55;73.38;102006.50;5039597;28;65559;-80
2023/05/19 10:31:18;;;;;;;;;10.33;6.00;;;;;19.63;72.60;102007.34;5037984;28;57255;-78
2023/05/19 10:33:59;;;;;;;;;6.33;6.33;;;;;19.71;72.66;102004.59;5039292;28;48158;-80
2023/05/19 10:36:28;;;;;;;;;8.00;8.00;;;;;19.79;71.61;102014.38;5028893;28;45332;-77
2023/05/19 10:39:05;;;;;;;;;7.33;5.67;;;;;19.80;71.61;102005.41;5035576;28;45949;-77
2023/05/19 10:42:01;;;;;;;;;8.00;8.00;;;;;19.90;71.98;101998.19;5034067;28;45518;-78
2023/05/19 10:44:44;;;;;;;;;8.00;6.67;;;;;20.00;71.97;102001.69;5028089;28;46818;-77
2023/05/19 10:47:10;;;;;;;;;9.67;8.00;;;;;20.04;70.95;101998.06;5037362;28;45496;-77
2023/05/19 10:49:36;;;;;;;;;10.00;10.00;;;;;20.05;69.79;101992.69;5041550;28;45555;-77
2023/05/19 10:52:02;;;;;;;;;20.00;19.33;;;;;20.11;70.36;101995.31;5036088;28;46274;-78
2023/05/19 10:54:45;;;;;;;;;36.75;30.75;;;;;20.22;69.50;101988.94;5037317;28;47659;-78
2023/05/19 10:57:17;;;;;;;;;17.33;14.67;;;;;20.31;69.57;101986.19;5032158;28;45671;-79
2023/05/19 10:59:45;;;;;;;;;14.33;10.67;;;;;20.37;69.68;101989.66;5035020;28;57304;-77
2023/05/19 11:02:41;;;;;;;;;19.00;16.00;;;;;20.45;69.46;101992.25;5033695;28;45520;-77
2023/05/19 11:05:15;;;;;;;;;19.67;13.33;;;;;20.53;69.16;101990.41;5032463;28;46422;-77
2023/05/19 11:07:54;;;;;;;;;11.67;8.67;;;;;20.65;69.36;101986.69;5035824;28;45445;-76
2023/05/19 11:10:23;;;;;;;;;7.00;7.00;;;;;20.77;68.98;101974.91;5038126;28;45187;-77
2023/05/19 11:12:49;;;;;;;;;8.67;8.00;;;;;20.90;67.92;101980.09;5036957;28;45608;-72